M I D A S
Marine Information and Data Acquisition System
Tripno 2072 of the Zeeleeuw from 2011-04-05 07:06:15 to 2011-04-05 15:38:27
Back to CruiseResearch ActivitiesStationsMapUnderway DataData graphs

EquipmentUnitsComments
TimeDGPSUTC
LatitudeDGPSDM.mWGS84
LongitudeDGPSDM.mWGS84
SpeedMeteo Stationm/sRelative wind speed
DirectionMeteo StationdegRelative wind direction
TemperatureMeteo Stationdeg CelciusAir temperature
PressureMeteo StationPaAtmospheric pressure
HumidityMeteo Station%Relative humidity
Missing or incorrect values are displayed as -999
Metereological data collected by the RV Zeeleeuw from 2011-04-05 07:08:43 to 2011-04-05 15:46:28
Time Latitude Longitude Speed Direction Temperature Pressure Humidity
2011-04-05 07:09 51°13.68 2°55.878 3.2 36 7.9 102270 41
2011-04-05 07:10 51°13.689 2°55.778 1.1 25 7.9 102260 40
2011-04-05 07:11 51°13.691 2°55.738 4.5 41 8 102270 38
2011-04-05 07:12 51°13.714 2°55.737 -999 78 8 102270 39
2011-04-05 07:13 51°13.784 2°55.677 1.4 283 8.1 102270 40
2011-04-05 07:14 51°13.917 2°55.57 2.5 285 8 102270 38
2011-04-05 07:15 51°14.07 2°55.455 0.1 283 8 102260 38
2011-04-05 07:16 51°14.227 2°55.324 -999 77 8 102260 40
2011-04-05 07:17 51°14.387 2°55.164 -999 282 8 102250 40
2011-04-05 07:18 51°14.558 2°54.991 -999 283 8 102240 40
2011-04-05 07:19 51°14.668 2°54.715 9.1 279 8.1 102230 41
2011-04-05 07:20 51°14.622 2°54.384 13 282 8.1 102190 39
2011-04-05 07:21 51°14.499 2°54.077 16.9 279 8.1 102180 39
2011-04-05 07:22 51°14.361 2°53.784 12.9 286 8.2 102160 40
2011-04-05 07:23 51°14.215 2°53.501 13.3 282 8.2 102170 40
2011-04-05 07:24 51°14.101 2°53.181 14.2 286 8.2 102160 40
2011-04-05 07:25 51°13.965 2°52.881 13.6 285 8.2 102170 41
2011-04-05 07:26 51°13.837 2°52.572 15.5 279 8.2 102180 41
2011-04-05 07:27 51°13.696 2°52.276 12.7 279 8.3 102170 40
2011-04-05 07:28 51°13.568 2°51.966 13 282 8.3 102160 39
2011-04-05 07:29 51°13.439 2°51.656 17.3 283 8.3 102180 41
2011-04-05 07:30 51°13.303 2°51.353 12.5 280 8.3 102180 40
2011-04-05 07:31 51°13.175 2°51.039 12.8 286 8.3 102180 41
2011-04-05 07:32 51°13.042 2°50.733 14.2 282 8.3 102180 40
2011-04-05 07:33 51°12.911 2°50.424 12.8 278 8.3 102180 41
2011-04-05 07:34 51°12.787 2°50.116 13.5 284 8.3 102190 41
2011-04-05 07:35 51°12.672 2°49.786 11.9 283 8.3 102200 41
2011-04-05 07:36 51°12.553 2°49.473 10.4 285 8.3 102180 39
2011-04-05 07:37 51°12.433 2°49.157 14.3 283 8.3 102190 41
2011-04-05 07:38 51°12.336 2°48.821 11.8 282 8.4 102190 40
2011-04-05 07:39 51°12.254 2°48.471 10.5 286 8.4 102210 41
2011-04-05 07:40 51°12.168 2°48.122 12.8 281 8.4 102210 40
2011-04-05 07:41 51°12.086 2°47.771 10.9 285 8.5 102200 41
2011-04-05 07:42 51°12.001 2°47.422 11.2 286 8.5 102200 41
2011-04-05 07:43 51°11.917 2°47.064 15 282 8.6 102200 40
2011-04-05 07:44 51°11.833 2°46.718 13.8 282 8.7 102200 39
2011-04-05 07:45 51°11.748 2°46.358 13.3 283 8.8 102190 40
2011-04-05 07:46 51°11.668 2°46.004 14.4 282 8.8 102180 39
2011-04-05 07:47 51°11.583 2°45.654 11.7 283 8.9 102200 40
2011-04-05 07:48 51°11.5 2°45.303 17.7 284 8.9 102190 40
2011-04-05 07:49 51°11.415 2°44.953 12.5 285 8.9 102180 39
2011-04-05 07:50 51°11.332 2°44.601 17.9 283 8.9 102180 41
2011-04-05 07:51 51°11.251 2°44.25 15.9 281 8.9 102180 41
2011-04-05 07:52 51°11.171 2°43.898 17.1 281 8.9 102170 39
2011-04-05 07:53 51°11.098 2°43.55 13 286 9 102170 40
2011-04-05 07:54 51°11.053 2°43.184 12.6 282 9 102160 41
2011-04-05 07:55 51°11.028 2°42.814 12.2 277 9 102180 40
2011-04-05 07:56 51°11.017 2°42.564 11 281 9 102180 40
2011-04-05 07:57 51°11.013 2°42.411 11.5 282 9 102190 41
2011-04-05 07:58 51°11.045 2°42.28 9.5 278 9 102200 41
2011-04-05 07:59 51°11.062 2°42.144 9.6 286 9.1 102200 41
2011-04-05 08:00 51°11.08 2°42.029 8.4 285 9.1 102210 38
2011-04-05 08:01 51°11.095 2°41.973 9.5 282 9.1 102210 40
2011-04-05 08:02 51°11.102 2°41.935 10 285 9.1 102210 40
2011-04-05 08:03 51°11.107 2°41.901 8.7 283 9.1 102200 40
2011-04-05 08:04 51°11.111 2°41.872 9.4 286 9.2 102210 39
2011-04-05 08:05 51°11.115 2°41.846 9.7 279 9.2 102210 42
2011-04-05 08:06 51°11.12 2°41.825 13.4 282 9.2 102200 40
2011-04-05 08:07 51°11.126 2°41.808 12.3 283 9.2 102210 40
2011-04-05 08:08 51°11.131 2°41.794 7.2 284 9.3 102220 40
2011-04-05 08:09 51°11.135 2°41.779 7.5 281 9.3 102220 40
2011-04-05 08:10 51°11.138 2°41.766 9.8 285 9.3 102210 42
2011-04-05 08:11 51°11.141 2°41.752 5.6 281 9.3 102220 41
2011-04-05 08:12 51°11.145 2°41.739 8.2 282 9.3 102220 40
2011-04-05 08:13 51°11.149 2°41.726 7.7 283 9.3 102220 39
2011-04-05 08:14 51°11.153 2°41.713 7.3 286 9.3 102220 40
2011-04-05 08:15 51°11.157 2°41.702 7.3 283 9.3 102220 39
2011-04-05 08:16 51°11.16 2°41.692 9.3 281 9.4 102220 38
2011-04-05 08:17 51°11.162 2°41.681 7.7 285 9.4 102230 40
2011-04-05 08:18 51°11.165 2°41.672 6.5 279 9.4 102230 40
2011-04-05 08:19 51°11.167 2°41.663 5.8 286 9.4 102230 39
2011-04-05 08:20 51°11.169 2°41.654 7.5 282 9.4 102240 40
2011-04-05 08:21 51°11.172 2°41.645 7.6 284 9.4 102240 42
2011-04-05 08:22 51°11.174 2°41.634 5.7 286 9.4 102240 42
2011-04-05 08:23 51°11.177 2°41.622 6.9 280 9.5 102250 41
2011-04-05 08:24 51°11.179 2°41.612 5.3 279 9.5 102240 40
2011-04-05 08:25 51°11.181 2°41.602 6.4 281 9.5 102240 40
2011-04-05 08:26 51°11.182 2°41.593 6.4 280 9.5 102230 41
2011-04-05 08:27 51°11.183 2°41.584 8.4 282 9.5 102230 40
2011-04-05 08:28 51°11.185 2°41.575 5.1 284 9.5 102230 40
2011-04-05 08:29 51°11.186 2°41.565 5.6 281 9.6 102240 40
2011-04-05 08:30 51°11.188 2°41.556 6.1 279 9.5 102230 40
2011-04-05 08:31 51°11.19 2°41.547 6.9 281 9.6 102230 42
2011-04-05 08:32 51°11.193 2°41.537 7.1 279 9.6 102230 39
2011-04-05 08:33 51°11.196 2°41.527 6.5 284 9.7 102230 43
2011-04-05 08:34 51°11.199 2°41.518 8.9 280 9.7 102230 42
2011-04-05 08:35 51°11.201 2°41.509 6.3 281 9.7 102230 43
2011-04-05 08:36 51°11.211 2°41.458 9.8 285 9.7 102230 42
2011-04-05 08:37 51°11.162 2°41.358 11.7 283 9.7 102220 40
2011-04-05 08:38 51°11.084 2°41.43 10.5 17 9.8 102220 42
2011-04-05 08:39 51°11.06 2°41.614 8.1 27 9.8 102250 40
2011-04-05 08:40 51°11.06 2°41.813 8.5 33 9.8 102250 39
2011-04-05 08:41 51°11.056 2°41.973 8.1 35 9.8 102250 42
2011-04-05 08:42 51°11.094 2°42.031 6.7 82 9.8 102260 41
2011-04-05 08:43 51°11.12 2°42.028 9.4 82 9.8 102260 39
2011-04-05 08:44 51°11.125 2°42.015 8.5 285 9.9 102250 42
2011-04-05 08:45 51°11.13 2°42 5.8 284 9.9 102260 42
2011-04-05 08:46 51°11.133 2°41.987 11.3 280 9.9 102260 42
2011-04-05 08:47 51°11.135 2°41.975 7.7 280 9.9 102270 40
2011-04-05 08:48 51°11.137 2°41.965 12.1 283 9.9 102270 40
2011-04-05 08:49 51°11.138 2°41.958 7.6 285 9.9 102280 42
2011-04-05 08:50 51°11.139 2°41.952 7 279 9.9 102270 42
2011-04-05 08:51 51°11.139 2°41.947 6.3 282 9.9 102270 42
2011-04-05 08:52 51°11.161 2°41.931 8.6 81 9.9 102270 40
2011-04-05 08:53 51°11.199 2°41.862 7.9 280 9.9 102270 40
2011-04-05 08:54 51°11.18 2°41.76 9 278 9.9 102260 41
2011-04-05 08:55 51°11.141 2°41.704 11 286 9.9 102240 41
2011-04-05 08:56 51°11.098 2°41.652 9.6 282 10 102240 41
2011-04-05 08:57 51°11.058 2°41.585 10.1 282 10 102250 41
2011-04-05 08:58 51°11.021 2°41.51 10.2 279 10 102240 40
2011-04-05 08:59 51°10.989 2°41.429 9.2 285 10 102260 40
2011-04-05 09:00 51°10.961 2°41.348 10.5 284 10 102260 41
2011-04-05 09:01 51°10.931 2°41.268 11.9 287 10 102260 42
2011-04-05 09:02 51°10.905 2°41.193 10 282 10 102260 41
2011-04-05 09:03 51°10.877 2°41.119 9.8 286 10 102260 42
2011-04-05 09:04 51°10.848 2°41.044 11.2 285 10 102260 40
2011-04-05 09:05 51°10.821 2°40.97 9.2 278 10 102270 41
2011-04-05 09:06 51°10.791 2°40.895 10.6 279 10 102270 41
2011-04-05 09:07 51°10.763 2°40.82 8.4 280 10 102270 42
2011-04-05 09:08 51°10.732 2°40.746 9.2 279 10.1 102270 41
2011-04-05 09:09 51°10.699 2°40.671 8.4 281 10.1 102270 41
2011-04-05 09:10 51°10.658 2°40.618 7.8 280 10.1 102270 42
2011-04-05 09:11 51°10.619 2°40.566 14.9 278 10.1 102250 43
2011-04-05 09:12 51°10.588 2°40.504 9.5 285 10.1 102240 39
2011-04-05 09:13 51°10.568 2°40.443 14.7 278 10.2 102260 42
2011-04-05 09:14 51°10.572 2°40.383 11.8 284 10.2 102240 41
2011-04-05 09:15 51°10.585 2°40.335 12.2 286 10.2 102250 42
2011-04-05 09:16 51°10.595 2°40.304 10.6 278 10.2 102240 41
2011-04-05 09:17 51°10.606 2°40.269 12 280 10.2 102250 42
2011-04-05 09:18 51°10.641 2°40.145 12.9 286 10.2 102230 42
2011-04-05 09:19 51°10.66 2°40.048 11.1 282 10.2 102240 41
2011-04-05 09:20 51°10.672 2°39.991 11.7 281 10.2 102240 41
2011-04-05 09:21 51°10.68 2°39.958 11.2 281 10.2 102240 42
2011-04-05 09:22 51°10.684 2°39.899 11 278 10.2 102250 42
2011-04-05 09:23 51°10.655 2°39.836 13.7 346 10.2 102250 40
2011-04-05 09:24 51°10.599 2°39.868 10.4 18 10.2 102240 42
2011-04-05 09:25 51°10.545 2°40.093 8.4 22 10.2 102260 42
2011-04-05 09:26 51°10.521 2°40.407 8.8 33 10.2 102270 40
2011-04-05 09:27 51°10.566 2°40.718 7.5 41 10.1 102270 41
2011-04-05 09:28 51°10.629 2°41.03 5.7 31 10.1 102280 38
2011-04-05 09:29 51°10.689 2°41.331 3.8 36 10.2 102280 41
2011-04-05 09:30 51°10.746 2°41.644 3.4 26 10.2 102280 39
2011-04-05 09:31 51°10.802 2°41.954 5 28 10.2 102280 42
2011-04-05 09:32 51°10.854 2°42.259 4.3 29 10.2 102270 39
2011-04-05 09:33 51°10.911 2°42.574 4.4 38 10.2 102280 42
2011-04-05 09:34 51°10.968 2°42.883 7.4 38 10.2 102280 42
2011-04-05 09:35 51°11.022 2°43.188 7.1 39 10.2 102280 40
2011-04-05 09:36 51°11.078 2°43.503 8.4 33 10.2 102270 38
2011-04-05 09:37 51°11.143 2°43.804 4.8 35 10.2 102280 39
2011-04-05 09:38 51°11.213 2°44.106 6.6 40 10.2 102280 42
2011-04-05 09:39 51°11.288 2°44.406 4.4 43 10.2 102280 42
2011-04-05 09:40 51°11.361 2°44.707 5.1 34 10.2 102280 42
2011-04-05 09:41 51°11.436 2°45.007 3.7 39 10.1 102270 42
2011-04-05 09:42 51°11.507 2°45.308 4.8 35 10.2 102280 42
2011-04-05 09:43 51°11.582 2°45.608 7.2 32 10.2 102280 41
2011-04-05 09:44 51°11.654 2°45.907 8 37 10.1 102280 38
2011-04-05 09:45 51°11.723 2°46.207 4.9 42 10.1 102280 39
2011-04-05 09:46 51°11.796 2°46.508 4.7 31 10.1 102280 42
2011-04-05 09:47 51°11.868 2°46.815 6.4 40 10.1 102280 42
2011-04-05 09:48 51°11.964 2°47.101 6.7 38 10.1 102290 39
2011-04-05 09:49 51°12.056 2°47.391 3.9 44 10.1 102280 39
2011-04-05 09:50 51°12.149 2°47.681 3.5 82 10.1 102290 39
2011-04-05 09:51 51°12.24 2°47.973 2.1 33 10.1 102280 42
2011-04-05 09:52 51°12.33 2°48.266 4.8 41 10.1 102280 40
2011-04-05 09:53 51°12.417 2°48.561 6.5 38 10.1 102290 39
2011-04-05 09:54 51°12.507 2°48.854 4.1 38 10 102280 42
2011-04-05 09:55 51°12.598 2°49.146 2.8 37 10 102280 39
2011-04-05 09:56 51°12.705 2°49.424 4.5 80 10 102290 43
2011-04-05 09:57 51°12.814 2°49.701 2.7 40 10 102290 42
2011-04-05 09:58 51°12.92 2°49.981 4.5 43 10.1 102290 40
2011-04-05 09:59 51°13.024 2°50.262 3.4 39 10 102290 40
2011-04-05 10:00 51°13.125 2°50.547 4.2 80 10 102290 38
2011-04-05 10:01 51°13.224 2°50.835 4.4 45 10 102290 42
2011-04-05 10:02 51°13.327 2°51.118 3.5 42 10 102290 39
2011-04-05 10:03 51°13.428 2°51.405 3.7 41 10 102290 43
2011-04-05 10:04 51°13.526 2°51.693 2.3 38 10 102290 43
2011-04-05 10:05 51°13.629 2°51.979 6.6 44 10 102290 43
2011-04-05 10:06 51°13.737 2°52.263 0.2 82 9.9 102290 42
2011-04-05 10:07 51°13.849 2°52.548 2 40 10 102290 41
2011-04-05 10:08 51°13.963 2°52.83 3.3 44 10 102290 38
2011-04-05 10:09 51°14.076 2°53.112 3.9 45 10 102280 42
2011-04-05 10:10 51°14.184 2°53.398 5.8 42 10 102290 41
2011-04-05 10:11 51°14.313 2°53.657 2.6 75 10 102290 41
2011-04-05 10:12 51°14.474 2°53.862 5 81 10.2 102290 40
2011-04-05 10:13 51°14.661 2°54.024 5.8 80 10.3 102290 39
2011-04-05 10:14 51°14.862 2°54.121 6.5 277 10.2 102280 40
2011-04-05 10:15 51°15.068 2°54.176 5.7 285 10.1 102280 39
2011-04-05 10:16 51°15.28 2°54.206 5.7 283 10.1 102290 41
2011-04-05 10:17 51°15.487 2°54.243 5.6 285 10 102280 43
2011-04-05 10:18 51°15.701 2°54.284 4.5 283 10 102290 40
2011-04-05 10:19 51°15.902 2°54.325 8.6 282 9.9 102290 43
2011-04-05 10:20 51°16.022 2°54.335 8.9 282 9.9 102280 41
2011-04-05 10:21 51°16.107 2°54.341 7.9 74 9.8 102280 42
2011-04-05 10:22 51°16.178 2°54.352 8.7 79 9.9 102280 42
2011-04-05 10:23 51°16.226 2°54.354 10 77 9.8 102270 41
2011-04-05 10:24 51°16.255 2°54.344 9.6 15 9.8 102280 42
2011-04-05 10:25 51°16.273 2°54.337 9.6 279 9.8 102290 40
2011-04-05 10:26 51°16.283 2°54.334 10.9 286 9.8 102260 41
2011-04-05 10:27 51°16.29 2°54.338 7.2 284 9.8 102290 41
2011-04-05 10:28 51°16.296 2°54.343 8.3 284 9.8 102290 43
2011-04-05 10:29 51°16.299 2°54.352 9.5 280 9.7 102240 41
2011-04-05 10:30 51°16.302 2°54.363 7.1 285 9.7 102280 42
2011-04-05 10:31 51°16.304 2°54.376 8.2 284 9.7 102280 41
2011-04-05 10:32 51°16.306 2°54.39 7.8 284 9.7 102280 40
2011-04-05 10:33 51°16.308 2°54.404 8.3 280 9.8 102250 40
2011-04-05 10:34 51°16.311 2°54.418 8.5 280 9.7 102240 42
2011-04-05 10:35 51°16.313 2°54.432 7.7 281 9.7 102250 41
2011-04-05 10:36 51°16.316 2°54.448 7.3 286 9.7 102250 43
2011-04-05 10:37 51°16.317 2°54.462 6.7 285 9.7 102280 42
2011-04-05 10:38 51°16.318 2°54.477 7.8 280 9.7 102280 43
2011-04-05 10:39 51°16.321 2°54.493 9.1 279 9.7 102270 41
2011-04-05 10:40 51°16.324 2°54.507 6.3 286 9.7 102270 39
2011-04-05 10:41 51°16.328 2°54.522 8 286 9.7 102270 43
2011-04-05 10:42 51°16.332 2°54.539 7.4 282 9.7 102270 42
2011-04-05 10:43 51°16.335 2°54.558 7.9 282 9.7 102260 40
2011-04-05 10:44 51°16.338 2°54.579 8.8 281 9.7 102270 42
2011-04-05 10:45 51°16.34 2°54.599 8.9 286 9.7 102280 42
2011-04-05 10:46 51°16.343 2°54.617 7.3 286 9.8 102280 42
2011-04-05 10:47 51°16.346 2°54.635 8 284 9.8 102270 42
2011-04-05 10:48 51°16.35 2°54.653 9 284 9.8 102270 42
2011-04-05 10:49 51°16.353 2°54.672 7.1 286 9.7 102270 43
2011-04-05 10:50 51°16.356 2°54.692 7.7 280 9.8 102270 42
2011-04-05 10:51 51°16.361 2°54.711 8.6 285 9.8 102260 40
2011-04-05 10:52 51°16.367 2°54.73 10.2 284 9.7 102250 43
2011-04-05 10:53 51°16.374 2°54.749 9.6 281 9.7 102270 42
2011-04-05 10:54 51°16.38 2°54.77 8.8 286 9.8 102260 43
2011-04-05 10:55 51°16.386 2°54.795 7.5 286 9.8 102270 42
2011-04-05 10:56 51°16.389 2°54.82 6.7 280 9.8 102270 39
2011-04-05 10:57 51°16.392 2°54.845 9 281 9.8 102270 43
2011-04-05 10:58 51°16.397 2°54.869 9.2 281 9.8 102260 43
2011-04-05 10:59 51°16.402 2°54.895 7.8 286 9.7 102270 42
2011-04-05 11:00 51°16.408 2°54.919 8.7 283 9.8 102270 40
2011-04-05 11:01 51°16.426 2°54.919 10.5 281 9.7 102250 42
2011-04-05 11:02 51°16.423 2°54.841 14.3 287 9.8 102250 41
2011-04-05 11:03 51°16.355 2°54.685 17.4 281 9.8 102260 42
2011-04-05 11:04 51°16.273 2°54.491 15.6 279 9.8 102260 41
2011-04-05 11:05 51°16.164 2°54.324 16.2 286 9.7 102250 41
2011-04-05 11:06 51°16.077 2°54.132 10.6 284 9.8 102250 41
2011-04-05 11:07 51°16.065 2°54.04 12.7 278 9.7 102250 42
2011-04-05 11:08 51°16.079 2°54.044 11.5 284 9.7 102250 43
2011-04-05 11:09 51°16.092 2°54.062 6.7 281 9.7 102270 43
2011-04-05 11:10 51°16.102 2°54.083 7.8 286 9.7 102270 41
2011-04-05 11:11 51°16.112 2°54.11 7.1 286 9.7 102280 43
2011-04-05 11:12 51°16.119 2°54.14 10.1 280 9.6 102270 42
2011-04-05 11:13 51°16.126 2°54.171 7.8 281 9.6 102270 43
2011-04-05 11:14 51°16.133 2°54.204 9.2 286 9.7 102270 41
2011-04-05 11:15 51°16.141 2°54.236 7.2 280 9.7 102270 43
2011-04-05 11:16 51°16.149 2°54.269 7.5 281 9.6 102280 41
2011-04-05 11:17 51°16.158 2°54.303 7.5 279 9.7 102270 43
2011-04-05 11:18 51°16.167 2°54.335 6 285 9.7 102280 41
2011-04-05 11:19 51°16.176 2°54.369 8.3 285 9.7 102280 42
2011-04-05 11:20 51°16.185 2°54.406 7.9 286 9.7 102270 42
2011-04-05 11:21 51°16.194 2°54.442 6.6 286 9.7 102260 41
2011-04-05 11:22 51°16.214 2°54.469 8.9 281 9.7 102280 43
2011-04-05 11:23 51°16.309 2°54.401 10.3 283 9.7 102270 44
2011-04-05 11:24 51°16.448 2°54.263 12.5 278 9.7 102260 44
2011-04-05 11:25 51°16.587 2°54.057 12.3 278 9.7 102250 43
2011-04-05 11:26 51°16.735 2°53.833 12.9 281 9.7 102240 42
2011-04-05 11:27 51°16.883 2°53.609 11.8 283 9.7 102250 43
2011-04-05 11:28 51°17.031 2°53.392 11 282 9.8 102250 42
2011-04-05 11:29 51°17.212 2°53.267 3.2 279 9.8 102260 42
2011-04-05 11:30 51°17.39 2°53.467 0.2 78 9.7 102280 45
2011-04-05 11:31 51°17.553 2°53.725 -999 79 10 102290 43
2011-04-05 11:32 51°17.722 2°53.958 0.1 77 10.1 102290 45
2011-04-05 11:33 51°17.898 2°54.197 0.1 77 10.1 102290 42
2011-04-05 11:34 51°18.068 2°54.436 1.6 77 10 102300 42
2011-04-05 11:35 51°18.24 2°54.668 1.7 80 10 102290 42
2011-04-05 11:36 51°18.365 2°54.832 6.7 77 10 102290 41
2011-04-05 11:37 51°18.459 2°54.911 6.1 77 9.9 102300 43
2011-04-05 11:38 51°18.534 2°54.986 7.2 80 9.9 102280 44
2011-04-05 11:39 51°18.577 2°55.077 7.4 79 9.8 102300 44
2011-04-05 11:40 51°18.609 2°55.171 8.2 76 9.8 102300 43
2011-04-05 11:41 51°18.637 2°55.258 10.6 80 9.7 102300 41
2011-04-05 11:42 51°18.665 2°55.342 6.7 79 9.7 102300 42
2011-04-05 11:43 51°18.697 2°55.422 6.3 79 9.7 102290 44
2011-04-05 11:44 51°18.731 2°55.499 4.3 75 9.8 102290 44
2011-04-05 11:45 51°18.766 2°55.571 7.1 79 9.9 102290 41
2011-04-05 11:46 51°18.809 2°55.647 4.6 79 9.8 102290 44
2011-04-05 11:47 51°18.854 2°55.728 8.2 81 9.8 102290 42
2011-04-05 11:48 51°18.901 2°55.813 4.5 74 9.7 102290 45
2011-04-05 11:49 51°18.945 2°55.897 7.3 75 9.8 102280 46
2011-04-05 11:50 51°18.99 2°55.986 3.6 77 9.9 102290 42
2011-04-05 11:51 51°19.034 2°56.073 4.4 75 10 102280 42
2011-04-05 11:52 51°19.076 2°56.163 5.1 79 10.1 102280 43
2011-04-05 11:53 51°19.108 2°56.259 11.6 43 10 102280 42
2011-04-05 11:54 51°19.127 2°56.357 9.5 36 9.8 102270 43
2011-04-05 11:55 51°19.139 2°56.448 8.7 32 9.8 102270 44
2011-04-05 11:56 51°19.144 2°56.54 8.3 26 9.7 102260 45
2011-04-05 11:57 51°19.131 2°56.667 10.2 19 9.7 102290 45
2011-04-05 11:58 51°19.113 2°56.795 9.7 19 9.6 102270 43
2011-04-05 11:59 51°19.106 2°56.885 13.5 16 9.6 102270 44
2011-04-05 12:00 51°19.104 2°56.958 12.2 19 9.6 102250 43
2011-04-05 12:01 51°19.107 2°57.02 10.9 10 9.6 102270 44
2011-04-05 12:02 51°19.099 2°57.115 8.5 26 9.6 102250 45
2011-04-05 12:03 51°19.132 2°57.267 8.3 79 9.6 102260 45
2011-04-05 12:04 51°19.225 2°57.522 3.7 39 9.6 102260 43
2011-04-05 12:05 51°19.344 2°57.848 4 38 9.6 102270 43
2011-04-05 12:06 51°19.463 2°58.19 3.2 38 9.6 102260 42
2011-04-05 12:07 51°19.583 2°58.523 4 33 9.6 102260 43
2011-04-05 12:08 51°19.703 2°58.856 4.2 38 9.6 102250 45
2011-04-05 12:09 51°19.827 2°59.196 5.1 37 9.5 102260 45
2011-04-05 12:10 51°19.941 2°59.528 0.2 35 9.5 102260 42
2011-04-05 12:11 51°20.057 2°59.88 3.2 30 9.6 102260 46
2011-04-05 12:12 51°20.174 3°0.221 2.9 37 9.6 102260 44
2011-04-05 12:13 51°20.297 3°0.573 1 28 9.6 102260 46
2011-04-05 12:14 51°20.41 3°0.922 5.3 32 9.6 102250 46
2011-04-05 12:15 51°20.505 3°1.303 5.4 23 9.6 102250 44
2011-04-05 12:16 51°20.598 3°1.672 5.3 29 9.5 102240 42
2011-04-05 12:17 51°20.692 3°2.053 6.2 31 9.5 102240 45
2011-04-05 12:18 51°20.785 3°2.416 3.9 21 9.5 102250 46
2011-04-05 12:19 51°20.88 3°2.794 4.6 31 9.6 102250 43
2011-04-05 12:20 51°20.973 3°3.165 5.3 27 9.5 102260 43
2011-04-05 12:21 51°21.069 3°3.551 3.7 26 9.5 102250 43
2011-04-05 12:22 51°21.164 3°3.923 4.7 25 9.6 102250 46
2011-04-05 12:23 51°21.261 3°4.307 4.2 30 9.5 102250 43
2011-04-05 12:24 51°21.352 3°4.691 2.9 24 9.5 102250 44
2011-04-05 12:25 51°21.453 3°5.074 4.9 28 9.5 102250 46
2011-04-05 12:26 51°21.548 3°5.457 4.9 29 9.5 102250 43
2011-04-05 12:27 51°21.643 3°5.838 6.3 31 9.5 102250 44
2011-04-05 12:28 51°21.743 3°6.217 4 23 9.5 102250 45
2011-04-05 12:29 51°21.841 3°6.585 4.7 31 9.6 102250 43
2011-04-05 12:30 51°21.94 3°6.966 2.7 20 9.6 102240 43
2011-04-05 12:31 51°22.011 3°7.362 4.8 22 9.6 102250 44
2011-04-05 12:32 51°22.07 3°7.759 7.5 18 9.6 102250 42
2011-04-05 12:33 51°22.108 3°8.162 7.7 22 9.6 102250 45
2011-04-05 12:34 51°22.149 3°8.568 7.6 17 9.6 102250 43
2011-04-05 12:35 51°22.185 3°8.98 7.3 18 9.6 102250 44
2011-04-05 12:36 51°22.227 3°9.394 5.3 12 9.6 102250 43
2011-04-05 12:37 51°22.266 3°9.809 8.1 14 9.6 102250 45
2011-04-05 12:38 51°22.302 3°10.224 8 18 9.7 102250 43
2011-04-05 12:39 51°22.341 3°10.641 8 18 9.6 102240 43
2011-04-05 12:40 51°22.377 3°11.063 6.7 18 9.7 102240 44
2011-04-05 12:41 51°22.418 3°11.492 6.5 18 9.7 102250 44
2011-04-05 12:42 51°22.449 3°11.913 6.9 15 9.7 102250 43
2011-04-05 12:43 51°22.481 3°12.356 7.1 13 9.7 102250 43
2011-04-05 12:44 51°22.545 3°12.72 6.1 36 9.8 102260 45
2011-04-05 12:45 51°22.591 3°12.966 3.9 37 9.8 102250 43
2011-04-05 12:46 51°22.631 3°13.131 0.1 77 9.9 102250 43
2011-04-05 12:47 51°22.667 3°13.236 6.7 79 10 102260 44
2011-04-05 12:48 51°22.678 3°13.33 9.9 82 10 102260 43
2011-04-05 12:49 51°22.69 3°13.424 6.3 283 10 102260 43
2011-04-05 12:50 51°22.699 3°13.517 7 282 10 102260 43
2011-04-05 12:51 51°22.707 3°13.617 8 281 10 102260 43
2011-04-05 12:52 51°22.713 3°13.718 7.6 286 10 102270 46
2011-04-05 12:53 51°22.719 3°13.819 7.5 80 10.1 102260 44
2011-04-05 12:54 51°22.724 3°13.916 9.2 80 10.1 102260 44
2011-04-05 12:55 51°22.73 3°14.015 7.1 280 10.1 102270 42
2011-04-05 12:56 51°22.753 3°14.079 8.5 286 10.1 102260 42
2011-04-05 12:57 51°22.74 3°14.056 8.2 280 10.1 102260 43
2011-04-05 12:58 51°22.71 3°13.962 13.1 281 10.1 102250 44
2011-04-05 12:59 51°22.696 3°13.835 12.5 279 10.1 102250 43
2011-04-05 13:00 51°22.671 3°13.707 10.2 280 10.2 102250 44
2011-04-05 13:01 51°22.639 3°13.586 9.8 285 10.2 102250 43
2011-04-05 13:02 51°22.623 3°13.458 10.7 282 10.2 102240 42
2011-04-05 13:03 51°22.606 3°13.328 13.2 287 10.3 102240 43
2011-04-05 13:04 51°22.597 3°13.277 8.8 287 10.3 102250 42
2011-04-05 13:05 51°22.596 3°13.29 10 285 10.3 102240 42
2011-04-05 13:06 51°22.6 3°13.315 8.8 287 10.3 102250 42
2011-04-05 13:07 51°22.605 3°13.337 10.3 282 10.3 102250 42
2011-04-05 13:08 51°22.61 3°13.355 9.5 285 10.3 102260 43
2011-04-05 13:09 51°22.615 3°13.375 9.2 281 10.3 102250 42
2011-04-05 13:10 51°22.619 3°13.39 9 281 10.3 102260 42
2011-04-05 13:11 51°22.622 3°13.403 12.3 280 10.3 102260 43
2011-04-05 13:12 51°22.628 3°13.415 9.9 281 10.3 102260 42
2011-04-05 13:13 51°22.635 3°13.428 11.5 283 10.3 102260 43
2011-04-05 13:14 51°22.637 3°13.435 8.9 280 10.3 102250 43
2011-04-05 13:15 51°22.638 3°13.439 8.8 281 10.3 102260 42
2011-04-05 13:16 51°22.64 3°13.447 8.9 280 10.3 102250 43
2011-04-05 13:17 51°22.642 3°13.45 10.1 283 10.3 102260 41
2011-04-05 13:18 51°22.644 3°13.45 9.8 280 10.3 102250 43
2011-04-05 13:19 51°22.647 3°13.451 11.1 281 10.3 102260 42
2011-04-05 13:20 51°22.65 3°13.453 10.6 280 10.3 102260 43
2011-04-05 13:21 51°22.655 3°13.456 9.1 280 10.3 102260 43
2011-04-05 13:22 51°22.657 3°13.461 9.1 283 10.3 102270 43
2011-04-05 13:23 51°22.661 3°13.465 9.3 280 10.3 102270 43
2011-04-05 13:24 51°22.664 3°13.467 8.6 281 10.3 102270 43
2011-04-05 13:25 51°22.666 3°13.472 9.4 282 10.4 102270 43
2011-04-05 13:26 51°22.669 3°13.476 8.2 280 10.4 102260 41
2011-04-05 13:27 51°22.671 3°13.481 8.6 283 10.4 102270 43
2011-04-05 13:28 51°22.673 3°13.486 8.6 286 10.4 102270 43
2011-04-05 13:29 51°22.699 3°13.495 5.6 285 10.4 102270 42
2011-04-05 13:30 51°22.808 3°13.493 8 283 10.4 102280 43
2011-04-05 13:31 51°23.001 3°13.431 8.5 279 10.4 102270 43
2011-04-05 13:32 51°23.212 3°13.404 7.2 281 10.4 102280 44
2011-04-05 13:33 51°23.425 3°13.395 9.9 286 10.4 102270 43
2011-04-05 13:34 51°23.613 3°13.404 4.8 281 10.4 102280 44
2011-04-05 13:35 51°23.721 3°13.44 6.1 280 10.4 102280 42
2011-04-05 13:36 51°23.796 3°13.51 6.6 74 10.3 102280 42
2011-04-05 13:37 51°23.835 3°13.647 6.2 30 10.3 102280 42
2011-04-05 13:38 51°23.843 3°13.777 8.2 25 10.3 102250 42
2011-04-05 13:39 51°23.847 3°13.906 7.9 28 10.2 102260 45
2011-04-05 13:40 51°23.856 3°14.028 8.6 36 10.2 102270 42
2011-04-05 13:41 51°23.869 3°14.149 8.5 30 10.1 102260 43
2011-04-05 13:42 51°23.875 3°14.266 8.4 22 10.1 102260 43
2011-04-05 13:43 51°23.876 3°14.379 9.9 27 10.1 102270 43
2011-04-05 13:44 51°23.876 3°14.494 8.7 26 10.2 102270 44
2011-04-05 13:45 51°23.873 3°14.606 10.2 25 10.1 102270 45
2011-04-05 13:46 51°23.871 3°14.716 8.2 25 10.1 102270 43
2011-04-05 13:47 51°23.87 3°14.824 8.5 24 10.1 102260 43
2011-04-05 13:48 51°23.873 3°14.933 9 28 10.1 102270 45
2011-04-05 13:49 51°23.876 3°15.039 8.4 27 10.2 102260 44
2011-04-05 13:50 51°23.877 3°15.144 9.8 26 10.2 102260 43
2011-04-05 13:51 51°23.876 3°15.248 7.4 28 10.2 102260 45
2011-04-05 13:52 51°23.874 3°15.349 9.9 25 10.2 102270 42
2011-04-05 13:53 51°23.867 3°15.444 9.4 28 10.2 102260 45
2011-04-05 13:54 51°23.858 3°15.555 10.7 24 10.2 102260 45
2011-04-05 13:55 51°23.848 3°15.674 10.6 24 10.2 102270 44
2011-04-05 13:56 51°23.837 3°15.782 11 15 10.2 102270 44
2011-04-05 13:57 51°23.825 3°15.88 12 14 10.2 102260 45
2011-04-05 13:58 51°23.812 3°15.98 11.7 13 10.3 102270 44
2011-04-05 13:59 51°23.791 3°16.087 11.2 11 10.3 102290 44
2011-04-05 14:00 51°23.769 3°16.195 11.9 10 10.3 102290 42
2011-04-05 14:01 51°23.758 3°16.283 10.5 9 10.3 102280 43
2011-04-05 14:02 51°23.752 3°16.362 8.2 4 10.3 102260 44
2011-04-05 14:03 51°23.727 3°16.436 10.3 278 10.3 102260 43
2011-04-05 14:04 51°23.692 3°16.446 11.6 280 10.3 102270 43
2011-04-05 14:05 51°23.682 3°16.318 13.4 282 10.3 102260 43
2011-04-05 14:06 51°23.634 3°16.084 15.4 281 10.3 102270 44
2011-04-05 14:07 51°23.581 3°15.828 16.2 282 10.3 102270 43
2011-04-05 14:08 51°23.533 3°15.561 18.6 282 10.3 102260 43
2011-04-05 14:09 51°23.485 3°15.291 16.6 286 10.3 102290 44
2011-04-05 14:10 51°23.437 3°15.022 15 285 10.3 102280 43
2011-04-05 14:11 51°23.391 3°14.755 14.3 282 10.2 102280 44
2011-04-05 14:12 51°23.345 3°14.492 13.5 282 10.2 102280 44
2011-04-05 14:13 51°23.298 3°14.222 14.4 284 10.3 102280 43
2011-04-05 14:14 51°23.252 3°13.954 16.1 284 10.2 102280 43
2011-04-05 14:15 51°23.208 3°13.689 14.5 282 10.2 102270 44
2011-04-05 14:16 51°23.162 3°13.421 15 277 10.2 102270 43
2011-04-05 14:17 51°23.116 3°13.15 14.3 282 10.2 102270 44
2011-04-05 14:18 51°23.071 3°12.878 12.8 282 10.2 102270 44
2011-04-05 14:19 51°23.029 3°12.609 15.9 283 10.2 102280 44
2011-04-05 14:20 51°22.984 3°12.331 15.1 286 10.2 102280 44
2011-04-05 14:21 51°22.94 3°12.053 15.3 280 10.1 102270 45
2011-04-05 14:22 51°22.896 3°11.772 14.4 286 10.1 102270 45
2011-04-05 14:23 51°22.853 3°11.488 16.9 282 10.2 102280 44
2011-04-05 14:24 51°22.811 3°11.203 12.1 286 10.1 102280 43
2011-04-05 14:25 51°22.767 3°10.921 20.3 279 10.1 102260 45
2011-04-05 14:26 51°22.726 3°10.642 15.6 282 10.1 102270 45
2011-04-05 14:27 51°22.682 3°10.361 18.6 280 10.1 102260 45
2011-04-05 14:28 51°22.637 3°10.09 8 280 10.1 102240 44
2011-04-05 14:29 51°22.549 3°9.846 14.3 280 10.1 102240 44
2011-04-05 14:30 51°22.445 3°9.62 16.2 284 10.1 102250 45
2011-04-05 14:31 51°22.322 3°9.413 17.2 281 10.2 102250 46
2011-04-05 14:32 51°22.197 3°9.21 16.1 282 10.2 102260 43
2011-04-05 14:33 51°22.073 3°9.005 14.9 283 10.2 102270 44
2011-04-05 14:34 51°21.952 3°8.792 18.8 282 10.2 102260 45
2011-04-05 14:35 51°21.828 3°8.574 17.3 282 10.2 102270 45
2011-04-05 14:36 51°21.707 3°8.355 12.7 279 10.2 102270 46
2011-04-05 14:37 51°21.583 3°8.134 15.5 284 10.2 102270 45
2011-04-05 14:38 51°21.459 3°7.911 19.9 280 10.2 102270 45
2011-04-05 14:39 51°21.332 3°7.697 19.2 282 10.2 102280 46
2011-04-05 14:40 51°21.198 3°7.472 17.1 285 10.2 102270 43
2011-04-05 14:41 51°21.068 3°7.255 12.2 285 10.2 102290 45
2011-04-05 14:42 51°20.937 3°7.04 15.5 280 10.2 102280 46
2011-04-05 14:43 51°20.805 3°6.825 13.2 282 10.2 102280 45
2011-04-05 14:44 51°20.674 3°6.61 16.2 285 10.2 102290 46
2011-04-05 14:45 51°20.544 3°6.391 16.1 282 10.2 102280 45
2011-04-05 14:46 51°20.412 3°6.173 15 280 10.2 102280 45
2011-04-05 14:47 51°20.282 3°5.956 16.4 284 10.2 102280 46
2011-04-05 14:48 51°20.156 3°5.747 16.9 281 10.2 102280 45
2011-04-05 14:49 51°20.026 3°5.53 13 285 10.2 102280 45
2011-04-05 14:50 51°19.904 3°5.308 8 281 10.2 102290 46
2011-04-05 14:51 51°19.779 3°5.072 15 283 10.2 102290 45
2011-04-05 14:52 51°19.657 3°4.837 15.3 284 10.2 102280 46
2011-04-05 14:53 51°19.534 3°4.61 13.7 280 10.2 102270 45
2011-04-05 14:54 51°19.413 3°4.382 15.1 283 10.2 102270 45
2011-04-05 14:55 51°19.29 3°4.152 18.1 282 10.2 102280 45
2011-04-05 14:56 51°19.167 3°3.92 15.8 280 10.2 102270 46
2011-04-05 14:57 51°19.047 3°3.698 14.7 278 10.3 102270 44
2011-04-05 14:58 51°18.924 3°3.469 11.4 281 10.3 102270 45
2011-04-05 14:59 51°18.801 3°3.241 13.4 285 10.2 102280 46
2011-04-05 15:00 51°18.68 3°3.018 14.7 284 10.2 102280 45
2011-04-05 15:01 51°18.56 3°2.794 11.6 281 10.1 102270 45
2011-04-05 15:02 51°18.44 3°2.571 13.3 278 10.1 102260 45
2011-04-05 15:03 51°18.32 3°2.351 13 282 10.1 102250 44
2011-04-05 15:04 51°18.202 3°2.135 11.6 284 10.1 102280 45
2011-04-05 15:05 51°18.08 3°1.908 14.2 284 10.1 102260 46
2011-04-05 15:06 51°17.961 3°1.687 11 286 10.1 102260 45
2011-04-05 15:07 51°17.84 3°1.46 12.9 287 10.1 102260 46
2011-04-05 15:08 51°17.723 3°1.242 10.8 287 10.1 102260 46
2011-04-05 15:09 51°17.601 3°1.015 13 279 10.1 102260 46
2011-04-05 15:10 51°17.481 3°0.792 13.4 283 10.1 102270 45
2011-04-05 15:11 51°17.364 3°0.563 11.8 280 10.1 102270 45
2011-04-05 15:12 51°17.271 3°0.299 11.4 281 10.2 102260 46
2011-04-05 15:13 51°17.181 3°0.045 14.3 284 10.2 102270 45
2011-04-05 15:14 51°17.104 2°59.769 10.8 284 10.2 102250 45
2011-04-05 15:15 51°17.032 2°59.496 11.1 279 10.3 102260 45
2011-04-05 15:16 51°16.968 2°59.209 11.2 279 10.3 102260 45
2011-04-05 15:17 51°16.908 2°58.928 12.5 281 10.3 102260 44
2011-04-05 15:18 51°16.845 2°58.638 12.8 277 10.3 102260 46
2011-04-05 15:19 51°16.771 2°58.361 12.5 283 10.4 102270 46
2011-04-05 15:20 51°16.633 2°58.155 16.3 278 10.4 102260 46
2011-04-05 15:21 51°16.494 2°57.942 13.8 285 10.4 102270 46
2011-04-05 15:22 51°16.357 2°57.733 12.5 281 10.5 102270 45
2011-04-05 15:23 51°16.217 2°57.514 13.5 284 10.5 102260 46
2011-04-05 15:24 51°16.095 2°57.284 12.8 281 10.6 102270 46
2011-04-05 15:25 51°15.982 2°57.029 14.5 282 10.6 102280 45
2011-04-05 15:26 51°15.873 2°56.781 13.9 285 10.6 102280 46
2011-04-05 15:27 51°15.763 2°56.525 14.7 285 10.7 102290 45
2011-04-05 15:28 51°15.652 2°56.276 13.3 281 10.7 102270 45
2011-04-05 15:29 51°15.539 2°56.031 12.5 280 10.8 102270 44
2011-04-05 15:30 51°15.425 2°55.791 17.5 279 10.8 102290 44
2011-04-05 15:31 51°15.303 2°55.565 15.9 283 10.8 102270 45
2011-04-05 15:32 51°15.173 2°55.346 14.6 282 10.9 102270 44
2011-04-05 15:33 51°15.032 2°55.155 16.5 285 10.9 102280 45
2011-04-05 15:34 51°14.853 2°55.042 17.8 281 10.9 102280 45
2011-04-05 15:35 51°14.672 2°54.967 15.6 286 10.9 102270 44
2011-04-05 15:36 51°14.487 2°55.069 11 1 10.9 102270 44
2011-04-05 15:37 51°14.319 2°55.245 17.6 1 10.9 102300 45
2011-04-05 15:38 51°14.149 2°55.391 4.4 280 10.9 102310 45
2011-04-05 15:39 51°13.995 2°55.511 7.3 347 11 102310 44
2011-04-05 15:40 51°13.897 2°55.585 8.1 282 11 102320 45
2011-04-05 15:41 51°13.818 2°55.646 9.4 1 11 102320 43
2011-04-05 15:42 51°13.746 2°55.717 4.3 4 11 102330 46
2011-04-05 15:43 51°13.702 2°55.818 5.9 5 11 102330 46
2011-04-05 15:44 51°13.679 2°55.906 5.3 10 10.9 102330 46
2011-04-05 15:45 51°13.664 2°55.954 1.5 25 10.9 102330 46